Time;durP1;ratioP1;P1;durP2;ratioP2;P2;SDS_P1;SDS_P2;PMS_P1;PMS_P2;Temp;Humidity;BMP_temperature;BMP_pressure;BME280_temperature;BME280_humidity;BME280_pressure;Samples;Min_cycle;Max_cycle;Signal;HPM_P1;HPM_P2
2022/10/23 00:01:42;;;;;;;4.72;2.53;;;15.50;57.60;;;;;;20605;6757;336811;-85
2022/10/23 00:04:18;;;;;;;3.67;2.37;;;15.60;57.60;;;;;;20851;6757;117112;-83
2022/10/23 00:06:53;;;;;;;2.60;2.40;;;15.50;57.80;;;;;;20749;6757;123192;-83
2022/10/23 00:09:31;;;;;;;2.67;2.40;;;15.00;59.10;;;;;;20872;6742;118654;-85
2022/10/23 00:12:08;;;;;;;2.87;2.53;;;15.00;59.10;;;;;;20618;6742;337295;-83
2022/10/23 00:14:43;;;;;;;3.03;2.80;;;15.20;58.50;;;;;;20647;6757;306476;-86
2022/10/23 00:17:49;;;;;;;;;;;;;;;;;;;;;
2022/10/23 00:20:24;;;;;;;;;;;;;;;;;;;;;
2022/10/23 00:22:51;;;;;;;2.87;2.17;;;15.10;58.60;;;;;;20758;6745;117116;-96
2022/10/23 00:25:28;;;;;;;2.60;2.07;;;14.90;59.20;;;;;;20864;6760;117057;-83
2022/10/23 00:28:05;;;;;;;6.57;2.30;;;14.70;59.70;;;;;;20724;6816;117907;-86
2022/10/23 00:30:40;;;;;;;2.40;2.20;;;14.50;60.40;;;;;;20779;6766;119220;-83
2022/10/23 00:33:17;;;;;;;3.30;2.42;;;14.70;60.30;;;;;;20587;6768;278709;-83
2022/10/23 00:35:52;;;;;;;4.00;2.50;;;14.70;60.30;;;;;;20589;6761;337264;-84
2022/10/23 00:38:28;;;;;;;2.50;2.40;;;15.20;59.20;;;;;;20804;6756;116310;-86
2022/10/23 00:41:04;;;;;;;3.40;2.67;;;14.90;59.70;;;;;;20842;6756;118339;-83
2022/10/23 00:43:57;;;;;;;2.47;2.30;;;14.90;59.70;;;;;;20840;6756;117330;-82
2022/10/23 00:46:33;;;;;;;4.57;2.47;;;14.70;60.30;;;;;;20766;6756;117217;-85
2022/10/23 00:49:09;;;;;;;4.20;2.87;;;14.50;60.90;;;;;;20647;6742;309433;-85
2022/10/23 00:51:47;;;;;;;2.47;2.27;;;14.80;61.50;;;;;;20806;6766;117540;-83
2022/10/23 00:54:24;;;;;;;3.17;2.37;;;14.70;61.30;;;;;;20799;6766;118983;-84
2022/10/23 00:57:00;;;;;;;2.80;2.60;;;14.70;61.00;;;;;;20516;6766;313297;-83
2022/10/23 00:59:37;;;;;;;2.63;2.30;;;15.00;60.40;;;;;;20862;6742;119628;-82
2022/10/23 01:02:12;;;;;;;3.60;2.57;;;15.10;60.50;;;;;;20591;6742;306606;-84
2022/10/23 01:04:49;;;;;;;2.50;2.10;;;15.30;59.80;;;;;;20831;6757;117640;-83
2022/10/23 01:07:28;;;;;;;2.53;2.33;;;15.40;59.50;;;;;;20480;6757;293710;-83
2022/10/23 01:10:05;;;;;;;2.40;2.30;;;15.40;59.70;;;;;;20790;6742;120529;-84
2022/10/23 01:12:43;;;;;;;2.70;2.47;;;15.40;59.70;;;;;;20617;6757;311892;-82
2022/10/23 01:15:22;;;;;;;2.97;2.60;;;15.50;59.20;;;;;;20820;6756;120518;-82
2022/10/23 01:18:11;;;;;;;2.90;2.50;;;15.40;59.40;;;;;;20668;6756;118594;-85
2022/10/23 01:21:22;;;;;;;4.17;2.87;;;15.20;60.10;;;;;;20632;6756;307989;-84
2022/10/23 01:24:08;;;;;;;2.73;2.50;;;15.40;59.40;;;;;;20879;6745;118894;-84
2022/10/23 01:27:10;;;;;;;4.10;2.20;;;15.30;59.50;;;;;;20758;6756;122835;-85
2022/10/23 01:30:06;;;;;;;3.08;2.60;;;15.10;60.10;;;;;;20628;6756;339958;-82
2022/10/23 01:32:55;;;;;;;2.80;2.50;;;15.30;59.60;;;;;;20858;6756;117499;-86
2022/10/23 01:35:37;;;;;;;5.00;2.50;;;15.30;59.60;;;;;;20832;6756;118794;-84
2022/10/23 01:38:23;;;;;;;3.30;2.27;;;15.00;60.10;;;;;;20856;6756;117495;-85
2022/10/23 01:41:10;;;;;;;4.47;2.97;;;14.80;60.60;;;;;;20753;6813;117022;-83
2022/10/23 01:43:48;;;;;;;5.40;3.65;;;14.70;61.10;;;;;;20663;6745;316512;-86
2022/10/23 01:46:26;;;;;;;3.47;3.17;;;15.00;61.10;;;;;;20790;6756;117400;-81
2022/10/23 01:49:03;;;;;;;4.25;3.80;;;15.00;61.10;;;;;;20688;6742;306366;-84
2022/10/23 01:51:38;;;;;;;3.50;3.20;;;15.20;61.30;;;;;;20251;6761;307682;-83
2022/10/23 01:54:14;;;;;;;3.27;2.97;;;15.60;60.30;;;;;;20557;6768;318085;-84
2022/10/23 01:56:49;;;;;;;4.40;3.00;;;15.90;59.20;;;;;;20746;6753;116992;-82
2022/10/23 01:59:27;;;;;;;4.40;2.77;;;15.40;60.20;;;;;;20699;6839;118444;-84
2022/10/23 02:02:03;;;;;;;4.50;2.97;;;15.40;60.20;;;;;;20589;6765;278825;-82
2022/10/23 02:04:41;;;;;;;3.70;2.93;;;15.60;59.60;;;;;;20619;6765;311930;-84
2022/10/23 02:07:22;;;;;;;3.10;2.90;;;15.80;58.30;;;;;;20650;6765;118527;-83
2022/10/23 02:09:52;;;;;;;3.03;2.70;;;15.60;58.70;;;;;;20806;6765;117177;-84
2022/10/23 02:12:28;;;;;;;4.60;2.80;;;15.30;59.50;;;;;;20809;6765;117199;-84
2022/10/23 02:15:17;;;;;;;2.73;2.43;;;14.90;61.00;;;;;;20697;6765;118403;-84
2022/10/23 02:17:56;;;;;;;2.80;2.60;;;14.90;60.90;;;;;;20662;6751;117629;-86
2022/10/23 02:20:41;;;;;;;4.57;2.40;;;14.70;61.50;;;;;;20803;6751;117034;-83
2022/10/23 02:23:20;;;;;;;4.07;2.80;;;14.60;61.80;;;;;;20617;6751;307180;-86
2022/10/23 02:26:04;;;;;;;7.77;2.90;;;14.90;61.10;;;;;;20622;6751;283482;-83
2022/10/23 02:28:56;;;;;;;;;;;;;;;;;;;;;
2022/10/23 02:31:22;;;;;;;7.53;2.60;;;15.60;57.50;;;;;;20030;6821;278229;-82
2022/10/23 02:33:57;;;;;;;4.73;2.27;;;15.80;56.60;;;;;;20608;6765;292686;-84
2022/10/23 02:36:43;;;;;;;8.88;2.83;;;15.90;56.10;;;;;;20530;6765;316679;-83
2022/10/23 02:39:16;;;;;;;5.57;2.50;;;16.00;55.60;;;;;;20849;6750;118581;-85
2022/10/23 02:41:46;;;;;;;5.80;2.40;;;15.70;56.30;;;;;;20627;6756;307962;-83
2022/10/23 02:44:25;;;;;;;5.50;2.30;;;15.60;56.30;;;;;;20807;6765;117114;-84
2022/10/23 02:47:23;;;;;;;5.67;2.83;;;15.40;56.90;;;;;;20719;6765;117853;-87
2022/10/23 02:50:24;;;;;;;2.97;2.63;;;15.00;57.60;;;;;;20907;6751;69536;-87
2022/10/23 02:53:06;;;;;;;3.20;2.40;;;14.70;58.60;;;;;;20695;6751;306004;-84
2022/10/23 02:55:45;;;;;;;3.55;2.70;;;14.90;59.20;;;;;;20702;6751;276908;-86
2022/10/23 02:58:17;;;;;;;7.10;2.70;;;15.20;58.50;;;;;;20694;6807;309622;-86
2022/10/23 03:00:56;;;;;;;9.67;2.60;;;15.50;57.30;;;;;;20937;6751;116704;-88
2022/10/23 03:03:35;;;;;;;3.00;2.70;;;15.30;57.50;;;;;;20700;6751;335923;-86
2022/10/23 03:06:10;;;;;;;4.15;2.53;;;15.40;57.80;;;;;;20522;6765;340300;-86
2022/10/23 03:08:59;;;;;;;10.13;2.70;;;15.60;57.20;;;;;;20436;6766;119388;-96
2022/10/23 03:11:38;;;;;;;2.23;2.13;;;15.40;57.60;;;;;;20449;6772;119741;-96
2022/10/23 03:14:10;;;;;;;4.27;2.57;;;15.00;58.20;;;;;;20821;6772;117172;-96
2022/10/23 03:16:47;;;;;;;5.93;2.73;;;14.80;59.30;;;;;;20493;6781;119657;-86
2022/10/23 03:19:23;;;;;;;3.10;2.60;;;14.60;60.10;;;;;;20868;6751;117297;-83
2022/10/23 03:21:58;;;;;;;2.93;2.73;;;14.40;60.70;;;;;;20881;6751;117083;-87
2022/10/23 03:24:35;;;;;;;2.97;2.77;;;14.30;61.20;;;;;;20851;6765;117684;-96
2022/10/23 03:27:16;;;;;;;4.40;2.50;;;14.30;61.60;;;;;;20576;6765;118288;-96
2022/10/23 03:29:47;;;;;;;2.78;2.58;;;14.70;63.10;;;;;;20639;6772;308007;-83
2022/10/23 03:32:23;;;;;;;4.20;2.50;;;14.70;62.60;;;;;;20886;6809;67940;-83
2022/10/23 03:34:58;;;;;;;3.22;2.67;;;14.90;62.20;;;;;;20648;6765;334960;-84
2022/10/23 03:37:37;;;;;;;3.00;2.70;;;15.20;60.80;;;;;;20688;6765;118455;-83
2022/10/23 03:40:13;;;;;;;3.07;2.53;;;15.20;60.70;;;;;;20684;6750;304845;-83
2022/10/23 03:42:49;;;;;;;14.57;2.60;;;15.40;60.30;;;;;;20901;6742;117044;-85
2022/10/23 03:45:24;;;;;;;4.00;2.20;;;15.40;60.20;;;;;;20873;6742;117628;-85
2022/10/23 03:48:01;;;;;;;3.78;2.20;;;15.20;60.30;;;;;;20483;6799;305358;-83
2022/10/23 03:50:37;;;;;;;4.62;2.28;;;15.40;58.10;;;;;;20673;6742;335317;-84
2022/10/23 03:53:12;;;;;;;4.47;2.00;;;15.70;56.00;;;;;;20870;6742;117813;-83
2022/10/23 03:55:48;;;;;;;4.30;2.20;;;15.50;56.50;;;;;;20641;6798;277029;-84
2022/10/23 03:58:25;;;;;;;6.37;2.30;;;15.60;55.80;;;;;;20597;6765;307765;-84
2022/10/23 04:01:01;;;;;;;4.33;2.03;;;15.80;54.90;;;;;;20893;6742;118434;-83
2022/10/23 04:03:37;;;;;;;2.33;2.00;;;15.00;56.20;;;;;;20875;6742;116991;-83
2022/10/23 04:06:13;;;;;;;5.57;2.07;;;15.00;56.20;;;;;;20774;6765;116940;-83
2022/10/23 04:08:48;;;;;;;5.05;3.15;;;14.70;57.10;;;;;;20584;6771;282434;-87
2022/10/23 04:11:25;;;;;;;5.10;2.70;;;14.70;56.70;;;;;;20797;6765;116756;-83
2022/10/23 04:14:02;;;;;;;3.73;2.97;;;14.60;57.70;;;;;;20810;6766;120247;-83
2022/10/23 04:16:37;;;;;;;2.97;2.77;;;14.40;57.80;;;;;;20740;6766;122641;-83
2022/10/23 04:19:16;;;;;;;2.60;2.40;;;14.10;58.40;;;;;;20815;6757;120984;-83
2022/10/23 04:21:50;;;;;;;2.97;2.70;;;13.90;59.10;;;;;;20841;6757;117694;-83
2022/10/23 04:24:25;;;;;;;3.22;2.90;;;13.80;59.70;;;;;;20600;6766;280690;-86
2022/10/23 04:27:03;;;;;;;3.00;2.70;;;14.40;57.50;;;;;;20493;6765;309065;-86
2022/10/23 04:29:39;;;;;;;4.60;3.10;;;14.70;56.70;;;;;;20621;6751;308028;-83
2022/10/23 04:32:15;;;;;;;5.70;3.27;;;14.80;56.80;;;;;;20596;6765;308546;-83
2022/10/23 04:34:50;;;;;;;26.10;3.30;;;15.00;55.80;;;;;;20814;6765;121102;-87
2022/10/23 04:37:27;;;;;;;31.62;3.95;;;14.70;56.30;;;;;;20410;6772;322148;-82
2022/10/23 04:40:03;;;;;;;29.97;3.43;;;14.70;56.00;;;;;;20802;6766;118431;-85
2022/10/23 04:42:38;;;;;;;95.93;5.13;;;14.50;56.60;;;;;;20813;6765;117672;-83
2022/10/23 04:45:14;;;;;;;3.13;2.80;;;14.20;57.40;;;;;;20806;6807;117012;-82
2022/10/23 04:47:52;;;;;;;3.10;2.90;;;13.90;58.10;;;;;;20524;6751;278318;-85
2022/10/23 04:50:26;;;;;;;3.70;2.73;;;14.10;58.20;;;;;;20852;6756;120778;-84
2022/10/23 04:53:02;;;;;;;4.73;2.70;;;14.10;58.20;;;;;;20814;6768;117271;-82
2022/10/23 04:55:37;;;;;;;5.28;2.80;;;13.90;58.80;;;;;;20632;6750;301475;-82
2022/10/23 04:58:13;;;;;;;3.40;3.20;;;14.10;58.40;;;;;;20898;6742;117363;-85
2022/10/23 05:00:48;;;;;;;5.97;5.43;;;14.00;58.30;;;;;;20879;6742;117430;-86
2022/10/23 05:03:25;;;;;;;3.07;2.87;;;13.70;59.40;;;;;;20863;6742;127223;-84
2022/10/23 05:06:00;;;;;;;4.37;2.80;;;13.70;59.40;;;;;;20847;6742;117554;-82
2022/10/23 05:08:36;;;;;;;3.40;3.10;;;13.60;59.70;;;;;;20667;6742;306122;-84
2022/10/23 05:11:11;;;;;;;2.87;2.67;;;13.80;58.80;;;;;;20862;6742;117080;-84
2022/10/23 05:13:47;;;;;;;2.97;2.78;;;13.80;58.90;;;;;;20640;6742;277815;-85
2022/10/23 05:16:27;;;;;;;4.50;3.30;;;14.10;58.20;;;;;;20563;6742;281458;-83
2022/10/23 05:19:02;;;;;;;3.17;2.97;;;14.40;57.00;;;;;;20403;6799;294653;-84
2022/10/23 05:21:39;;;;;;;3.30;2.63;;;14.60;56.20;;;;;;20840;6742;117493;-82
2022/10/23 05:24:15;;;;;;;3.63;3.33;;;14.10;58.60;;;;;;20856;6742;117988;-85
2022/10/23 05:26:51;;;;;;;3.30;3.00;;;14.10;58.00;;;;;;20537;6743;312269;-86
2022/10/23 05:29:26;;;;;;;2.80;2.60;;;14.30;57.40;;;;;;20602;6742;277485;-82
2022/10/23 05:32:02;;;;;;;2.70;2.37;;;14.60;57.40;;;;;;20873;6742;116231;-85
2022/10/23 05:34:39;;;;;;;2.67;2.47;;;14.40;57.50;;;;;;20881;6742;117874;-86
2022/10/23 05:37:16;;;;;;;4.10;2.53;;;14.20;58.10;;;;;;20742;6742;120731;-82
2022/10/23 05:39:52;;;;;;;5.93;3.10;;;13.90;58.50;;;;;;20884;6742;117299;-85
2022/10/23 05:42:27;;;;;;;2.72;2.58;;;13.60;59.00;;;;;;20678;6742;305640;-84
2022/10/23 05:45:06;;;;;;;51.93;4.90;;;13.90;58.10;;;;;;20898;6742;118307;-84
2022/10/23 05:47:39;;;;;;;121.53;6.68;;;13.80;58.10;;;;;;20512;6742;310033;-85
2022/10/23 05:50:14;;;;;;;46.67;5.40;;;14.00;57.20;;;;;;20678;6742;282207;-86
2022/10/23 05:52:51;;;;;;;302.40;12.20;;;14.10;57.80;;;;;;20884;6742;117216;-89
2022/10/23 05:55:26;;;;;;;406.57;12.87;;;14.10;57.20;;;;;;20874;6742;121186;-86
2022/10/23 05:58:02;;;;;;;252.13;10.32;;;13.80;58.10;;;;;;20476;6808;307930;-86
2022/10/23 06:00:43;;;;;;;173.07;9.53;;;13.90;57.80;;;;;;20715;6742;275832;-84
2022/10/23 06:03:13;;;;;;;242.40;9.03;;;14.20;57.70;;;;;;20908;6742;117753;-85
2022/10/23 06:05:49;;;;;;;107.77;7.73;;;14.10;58.10;;;;;;20921;6742;116575;-84
2022/10/23 06:08:26;;;;;;;421.37;12.83;;;13.80;58.70;;;;;;20925;6742;116627;-85
2022/10/23 06:11:06;;;;;;;159.40;7.03;;;13.50;59.20;;;;;;20694;6798;280714;-86
2022/10/23 06:13:42;;;;;;;279.27;10.00;;;13.70;58.50;;;;;;20915;6742;118989;-88
2022/10/23 06:16:17;;;;;;;29.17;4.83;;;13.70;58.70;;;;;;20849;6742;117580;-85
2022/10/23 06:18:53;;;;;;;326.90;11.93;;;13.50;59.40;;;;;;20909;6742;118131;-87
2022/10/23 06:21:32;;;;;;;168.20;8.80;;;13.20;60.60;;;;;;20881;6742;118101;-85
2022/10/23 06:24:06;;;;;;;203.33;10.40;;;13.20;60.60;;;;;;20932;6799;117897;-89
2022/10/23 06:26:42;;;;;;;494.33;16.50;;;13.10;60.90;;;;;;20605;6742;279064;-86
2022/10/23 06:29:17;;;;;;;521.10;15.70;;;13.40;60.10;;;;;;20672;6742;335269;-92
2022/10/23 06:31:53;;;;;;;304.73;11.77;;;13.90;59.30;;;;;;20962;6742;117559;-95
2022/10/23 06:34:30;;;;;;;468.63;14.30;;;13.80;59.20;;;;;;20981;6742;116731;-94
2022/10/23 06:37:06;;;;;;;328.83;13.73;;;13.60;59.90;;;;;;20849;6742;68611;-85
2022/10/23 06:39:42;;;;;;;117.43;6.62;;;13.60;59.60;;;;;;20692;6742;306890;-86
2022/10/23 06:42:18;;;;;;;3.60;3.40;;;13.70;59.70;;;;;;20690;6742;278989;-85
2022/10/23 06:44:53;;;;;;;4.03;2.80;;;14.10;58.70;;;;;;20896;6742;118642;-91
2022/10/23 06:47:30;;;;;;;2.97;2.87;;;14.10;59.00;;;;;;20723;6742;118727;-86
2022/10/23 06:50:06;;;;;;;3.80;2.73;;;13.90;59.70;;;;;;20877;6742;120868;-90
2022/10/23 06:52:42;;;;;;;2.63;2.50;;;13.60;61.30;;;;;;20885;6742;116989;-87
2022/10/23 06:55:17;;;;;;;3.37;2.80;;;13.60;61.30;;;;;;20664;6742;277433;-85
2022/10/23 06:57:54;;;;;;;3.13;2.93;;;14.00;61.00;;;;;;20667;6799;117399;-85
2022/10/23 07:00:30;;;;;;;3.20;2.90;;;14.20;60.90;;;;;;20889;6742;117112;-84
2022/10/23 07:03:12;;;;;;;3.03;2.50;;;14.20;61.30;;;;;;20876;6742;118937;-86
2022/10/23 07:05:49;;;;;;;4.30;2.73;;;14.10;61.60;;;;;;20867;6742;118161;-90
2022/10/23 07:08:25;;;;;;;3.13;2.90;;;14.20;61.90;;;;;;20873;6742;117135;-87
2022/10/23 07:11:03;;;;;;;3.62;2.90;;;14.10;61.70;;;;;;20657;6742;335681;-90
2022/10/23 07:13:39;;;;;;;6.97;2.70;;;14.40;59.60;;;;;;20864;6742;116920;-89
2022/10/23 07:16:16;;;;;;;3.67;2.57;;;14.50;59.70;;;;;;20823;6742;117040;-87
2022/10/23 07:19:01;;;;;;;7.35;3.05;;;14.50;60.00;;;;;;20665;6742;340136;-86
2022/10/23 07:21:37;;;;;;;17.87;3.33;;;14.80;58.50;;;;;;20861;6742;118994;-85
2022/10/23 07:24:13;;;;;;;8.45;3.35;;;14.80;58.80;;;;;;20664;6742;307260;-88
2022/10/23 07:26:49;;;;;;;3.17;2.97;;;15.00;58.30;;;;;;20546;6757;280597;-86
2022/10/23 07:29:25;;;;;;;3.53;3.33;;;15.40;57.10;;;;;;20649;6742;277367;-85
2022/10/23 07:32:00;;;;;;;5.68;3.70;;;15.60;56.40;;;;;;20614;6757;336632;-86
2022/10/23 07:34:37;;;;;;;3.60;3.30;;;15.80;55.60;;;;;;20884;6742;118272;-89
2022/10/23 07:37:13;;;;;;;3.87;3.60;;;15.60;56.20;;;;;;20479;6754;308855;-86
2022/10/23 07:39:48;;;;;;;4.70;3.67;;;15.70;56.10;;;;;;20585;6760;307062;-86
2022/10/23 07:42:24;;;;;;;7.82;3.70;;;16.00;55.80;;;;;;20574;6769;310566;-89
2022/10/23 07:45:09;;;;;;;;;;;;;;;;;;;;;
2022/10/23 07:47:35;;;;;;;3.40;3.20;;;16.00;56.20;;;;;;20503;6765;119941;-87
2022/10/23 07:50:10;;;;;;;4.07;3.50;;;15.80;57.10;;;;;;20854;6751;117018;-92
2022/10/23 07:52:47;;;;;;;3.85;3.50;;;15.80;57.20;;;;;;20624;6751;312377;-90
2022/10/23 07:55:22;;;;;;;3.50;3.20;;;15.80;57.20;;;;;;20828;6751;117845;-86
2022/10/23 07:57:59;;;;;;;3.87;3.58;;;15.90;57.50;;;;;;20477;6807;307802;-94
2022/10/23 08:00:35;;;;;;;4.03;3.30;;;16.10;56.60;;;;;;20872;6751;119212;-87
2022/10/23 08:03:11;;;;;;;5.10;3.60;;;16.10;57.00;;;;;;20615;6751;295986;-86
2022/10/23 08:05:46;;;;;;;4.00;3.57;;;16.30;56.40;;;;;;20624;6751;280288;-88
2022/10/23 08:08:22;;;;;;;3.97;3.13;;;16.60;56.20;;;;;;20841;6751;117005;-87
2022/10/23 08:10:57;;;;;;;3.30;3.10;;;16.70;56.60;;;;;;20849;6751;117354;-90
2022/10/23 08:13:33;;;;;;;4.45;3.30;;;16.50;57.40;;;;;;20616;6751;308438;-88
2022/10/23 08:16:08;;;;;;;3.10;2.90;;;16.80;56.70;;;;;;20579;6751;310494;-87
2022/10/23 08:18:44;;;;;;;3.77;3.00;;;17.30;56.40;;;;;;20821;6751;118730;-88
2022/10/23 08:21:20;;;;;;;3.15;2.83;;;17.80;56.20;;;;;;20618;6751;277378;-87
2022/10/23 08:23:57;;;;;;;3.27;2.80;;;17.70;56.10;;;;;;20848;6751;118299;-89
2022/10/23 08:26:34;;;;;;;3.23;2.40;;;17.90;56.80;;;;;;20783;6750;117059;-85
2022/10/23 08:29:09;;;;;;;2.63;2.43;;;17.80;56.70;;;;;;20591;6750;308553;-87
2022/10/23 08:31:45;;;;;;;3.30;2.40;;;18.10;56.10;;;;;;20781;6756;116297;-87
2022/10/23 08:34:20;;;;;;;4.83;2.90;;;18.10;56.40;;;;;;20790;6765;116690;-93
2022/10/23 08:36:57;;;;;;;3.27;2.93;;;18.00;56.80;;;;;;20651;6765;281652;-90
2022/10/23 08:39:32;;;;;;;3.15;2.95;;;17.90;57.00;;;;;;20626;6750;283527;-87
2022/10/23 08:42:08;;;;;;;3.37;3.17;;;18.00;55.60;;;;;;20649;6750;335968;-92
2022/10/23 08:44:55;;;;;;;2.60;2.50;;;18.40;55.50;;;;;;20856;6751;119822;-88
2022/10/23 08:47:30;;;;;;;3.62;3.03;;;18.30;55.70;;;;;;20448;6751;308736;-90
2022/10/23 08:50:05;;;;;;;3.90;2.80;;;18.50;55.50;;;;;;20645;6751;278079;-88
2022/10/23 08:53:04;;;;;;;4.07;3.10;;;18.80;55.30;;;;;;20619;6807;310792;-88
2022/10/23 08:55:39;;;;;;;3.50;2.80;;;19.10;54.50;;;;;;20611;6750;311084;-88
2022/10/23 08:58:15;;;;;;;3.87;2.90;;;19.50;54.30;;;;;;20573;6765;307501;-88
2022/10/23 09:00:50;;;;;;;2.97;2.50;;;19.80;53.80;;;;;;20579;6780;340189;-88
2022/10/23 09:03:27;;;;;;;2.67;2.30;;;20.10;53.60;;;;;;20722;6781;120298;-90
2022/10/23 09:06:04;;;;;;;2.77;2.20;;;20.10;53.90;;;;;;20775;6765;118249;-90
2022/10/23 09:08:42;;;;;;;4.53;2.10;;;19.90;54.50;;;;;;20630;6751;310098;-90
2022/10/23 09:11:37;;;;;;;3.05;2.10;;;20.00;53.60;;;;;;20618;6751;341508;-87
2022/10/23 09:14:23;;;;;;;3.27;2.20;;;20.40;52.80;;;;;;20857;6751;117586;-87
2022/10/23 09:17:12;;;;;;;2.90;2.60;;;20.50;53.40;;;;;;20542;6751;278994;-90
2022/10/23 09:19:47;;;;;;;2.70;2.23;;;20.60;52.50;;;;;;20630;6751;308429;-87
2022/10/23 09:22:23;;;;;;;3.00;2.30;;;20.80;51.20;;;;;;20856;6751;118222;-89
2022/10/23 09:25:00;;;;;;;2.93;2.30;;;20.90;52.20;;;;;;20854;6751;121491;-87
2022/10/23 09:27:36;;;;;;;4.70;1.97;;;20.70;53.20;;;;;;20691;6750;123114;-86
2022/10/23 09:30:11;;;;;;;2.83;2.53;;;20.60;53.90;;;;;;20636;6751;307702;-88
2022/10/23 09:32:47;;;;;;;2.10;1.90;;;20.80;54.20;;;;;;20633;6751;341506;-87
2022/10/23 09:35:22;;;;;;;4.70;1.97;;;21.20;51.60;;;;;;20552;6751;307262;-87
2022/10/23 09:37:58;;;;;;;4.60;2.07;;;21.60;51.90;;;;;;20457;6750;331349;-93
2022/10/23 09:40:39;;;;;;;3.63;1.80;;;21.90;51.90;;;;;;20934;6750;116573;-94
2022/10/23 09:43:26;;;;;;;2.97;1.63;;;21.90;52.00;;;;;;20859;6750;119170;-96
2022/10/23 09:46:01;;;;;;;2.07;1.87;;;21.60;52.20;;;;;;20666;6750;306760;-87
2022/10/23 09:48:37;;;;;;;5.07;2.00;;;21.70;51.30;;;;;;20647;6750;307198;-87
2022/10/23 09:51:15;;;;;;;4.57;2.03;;;22.00;51.40;;;;;;20858;6750;120951;-89
2022/10/23 09:53:56;;;;;;;2.67;1.97;;;21.80;52.60;;;;;;20856;6750;117260;-88
2022/10/23 09:56:38;;;;;;;3.70;2.00;;;21.70;52.50;;;;;;20576;6751;282491;-87
2022/10/23 09:59:14;;;;;;;2.10;1.90;;;21.90;53.00;;;;;;20623;6751;312264;-89
2022/10/23 10:01:50;;;;;;;2.07;1.70;;;22.30;51.00;;;;;;20845;6751;117331;-88
2022/10/23 10:04:29;;;;;;;1.67;1.40;;;22.30;51.20;;;;;;20851;6751;117500;-88
2022/10/23 10:07:14;;;;;;;2.57;1.70;;;22.10;51.20;;;;;;20743;6751;118172;-88
2022/10/23 10:09:54;;;;;;;3.80;2.15;;;22.10;50.70;;;;;;20640;6751;307620;-88
2022/10/23 10:12:49;;;;;;;2.87;1.60;;;22.00;50.60;;;;;;20858;6751;123290;-86
2022/10/23 10:15:28;;;;;;;4.37;1.77;;;22.10;51.40;;;;;;20826;6751;119493;-86
2022/10/23 10:18:09;;;;;;;2.63;1.87;;;21.90;52.20;;;;;;20792;6751;117179;-88
2022/10/23 10:20:51;;;;;;;2.00;1.77;;;21.70;52.80;;;;;;20747;6780;117453;-87
2022/10/23 10:23:33;;;;;;;1.83;1.57;;;21.70;53.10;;;;;;20779;6765;117123;-88
2022/10/23 10:26:22;;;;;;;2.33;1.50;;;21.60;53.40;;;;;;20553;6765;339607;-88
2022/10/23 10:29:18;;;;;;;2.00;1.30;;;21.90;51.30;;;;;;20630;6751;316685;-88
2022/10/23 10:32:17;;;;;;;1.70;1.60;;;22.40;50.90;;;;;;20846;6751;117009;-87
2022/10/23 10:35:02;;;;;;;1.20;1.20;;;22.40;50.90;;;;;;20845;6751;117058;-87
2022/10/23 10:38:15;;;;;;;3.50;1.90;;;22.20;51.30;;;;;;20693;6751;120429;-88
2022/10/23 10:40:50;;;;;;;3.72;1.80;;;22.00;51.90;;;;;;20632;6751;337715;-86
2022/10/23 10:43:48;;;;;;;3.10;1.70;;;22.30;50.00;;;;;;20785;6813;126884;-88
2022/10/23 10:46:27;;;;;;;2.70;1.60;;;22.30;50.90;;;;;;20748;6765;116212;-86
2022/10/23 10:49:19;;;;;;;1.98;1.65;;;22.10;51.60;;;;;;20482;6806;314688;-86
2022/10/23 10:52:21;;;;;;;2.07;1.50;;;22.20;50.40;;;;;;20850;6750;120645;-88
2022/10/23 10:55:03;;;;;;;3.00;1.60;;;22.20;51.30;;;;;;20621;6750;310771;-87
2022/10/23 10:57:41;;;;;;;1.47;1.47;;;22.40;50.30;;;;;;20673;6750;120443;-86
2022/10/23 11:00:17;;;;;;;1.70;1.60;;;22.50;50.90;;;;;;20638;6750;313148;-86
2022/10/23 11:03:02;;;;;;;3.77;1.63;;;22.60;51.00;;;;;;20852;6750;121033;-87
2022/10/23 11:05:43;;;;;;;2.60;1.60;;;22.50;52.00;;;;;;20839;6750;116967;-87
2022/10/23 11:08:26;;;;;;;1.80;1.57;;;22.50;51.90;;;;;;20837;6751;119382;-86
2022/10/23 11:10:57;;;;;;;6.20;1.77;;;22.40;52.10;;;;;;20571;6772;281866;-85
2022/10/23 11:13:39;;;;;;;1.67;1.53;;;22.50;49.80;;;;;;20771;6765;121046;-87
2022/10/23 11:16:25;;;;;;;2.67;1.80;;;22.50;50.40;;;;;;20799;6756;116892;-89
2022/10/23 11:19:01;;;;;;;2.12;1.70;;;22.40;51.40;;;;;;20621;6756;321165;-88
2022/10/23 11:21:57;;;;;;;4.40;1.60;;;22.50;50.20;;;;;;20828;6756;118546;-88
2022/10/23 11:24:43;;;;;;;2.55;2.00;;;22.50;51.00;;;;;;20623;6756;336996;-84
2022/10/23 11:27:21;;;;;;;1.65;1.50;;;22.70;50.70;;;;;;20464;6756;338731;-84
2022/10/23 11:30:20;;;;;;;3.43;2.07;;;23.00;50.30;;;;;;20818;6756;117022;-86
2022/10/23 11:33:02;;;;;;;1.87;1.77;;;22.90;50.80;;;;;;20634;6757;280080;-85
2022/10/23 11:36:00;;;;;;;2.43;2.23;;;23.00;50.30;;;;;;20630;6742;277135;-86
2022/10/23 11:38:36;;;;;;;1.83;1.57;;;23.20;48.70;;;;;;20653;6742;277191;-89
2022/10/23 11:41:21;;;;;;;2.83;1.70;;;23.40;48.10;;;;;;20798;6756;118692;-90
2022/10/23 11:44:00;;;;;;;2.20;2.00;;;23.20;49.30;;;;;;20669;6742;335691;-89
2022/10/23 11:46:35;;;;;;;2.50;1.77;;;23.20;49.40;;;;;;20518;6757;280446;-87
2022/10/23 11:49:27;;;;;;;;;;;;;;;;;;;;;
2022/10/23 11:52:02;;;;;;;2.50;1.58;;;23.60;47.70;;;;;;20595;6742;307363;-88
2022/10/23 11:54:38;;;;;;;1.73;1.53;;;23.80;47.70;;;;;;20608;6756;278636;-87
2022/10/23 11:57:13;;;;;;;1.47;1.20;;;24.00;46.40;;;;;;20669;6756;117530;-85
2022/10/23 11:59:54;;;;;;;1.53;1.40;;;23.90;47.20;;;;;;20675;6742;307257;-90
2022/10/23 12:02:33;;;;;;;2.43;1.70;;;23.80;47.00;;;;;;20767;6780;118278;-88
2022/10/23 12:05:36;;;;;;;1.00;1.00;;;23.70;48.10;;;;;;20781;6765;120439;-93
2022/10/23 12:08:20;;;;;;;1.93;1.60;;;23.40;49.40;;;;;;20774;6768;117462;-84
2022/10/23 12:10:56;;;;;;;1.90;1.53;;;23.40;48.80;;;;;;20542;6768;310618;-96
2022/10/23 12:13:36;;;;;;;1.47;1.37;;;23.70;48.50;;;;;;20780;6768;121224;-87
2022/10/23 12:16:17;;;;;;;1.40;1.30;;;23.70;48.40;;;;;;20814;6751;118402;-89
2022/10/23 12:18:46;;;;;;;3.23;1.53;;;23.60;48.80;;;;;;20565;6780;312545;-86
2022/10/23 12:21:26;;;;;;;1.83;1.27;;;23.80;47.60;;;;;;20787;6822;119417;-96
2022/10/23 12:24:30;;;;;;;2.30;1.30;;;23.90;48.00;;;;;;20829;6765;118055;-88
2022/10/23 12:27:03;;;;;;;3.40;1.20;;;23.80;48.40;;;;;;20706;6771;123894;-87
2022/10/23 12:29:42;;;;;;;1.53;1.20;;;23.50;48.90;;;;;;20817;6766;118385;-88
2022/10/23 12:32:24;;;;;;;2.37;1.20;;;23.50;48.80;;;;;;20835;6757;117114;-90
2022/10/23 12:35:06;;;;;;;1.30;1.20;;;23.40;49.00;;;;;;20627;6766;278229;-86
2022/10/23 12:37:45;;;;;;;2.40;1.20;;;23.70;47.10;;;;;;20387;6766;297571;-89
2022/10/23 12:40:21;;;;;;;1.40;1.30;;;24.10;45.80;;;;;;20617;6765;278715;-89
2022/10/23 12:42:56;;;;;;;2.63;1.20;;;24.40;45.70;;;;;;20670;6751;305481;-96
2022/10/23 12:45:38;;;;;;;1.50;1.20;;;24.70;45.10;;;;;;20799;6737;121627;-94
2022/10/23 12:48:23;;;;;;;1.90;1.30;;;24.60;46.40;;;;;;20446;6737;281525;-94
2022/10/23 12:50:57;;;;;;;2.13;1.07;;;24.60;46.10;;;;;;20697;6737;306529;-95
2022/10/23 12:53:33;;;;;;;1.40;1.30;;;24.90;44.50;;;;;;20812;6762;117260;-86
2022/10/23 12:56:09;;;;;;;1.10;1.10;;;24.80;45.70;;;;;;20826;6747;67013;-90
2022/10/23 12:58:52;;;;;;;2.90;1.40;;;24.50;46.50;;;;;;20707;6737;302392;-89
2022/10/23 13:01:24;;;;;;;1.40;1.30;;;24.50;45.70;;;;;;20877;6737;120772;-85
2022/10/23 13:04:09;;;;;;;1.30;1.20;;;24.50;45.60;;;;;;20835;6751;116179;-90
2022/10/23 13:06:47;;;;;;;2.97;1.27;;;24.30;46.70;;;;;;20740;6751;117113;-93
2022/10/23 13:09:23;;;;;;;2.62;1.25;;;24.30;47.20;;;;;;20590;6751;306440;-91
2022/10/23 13:11:59;;;;;;;1.43;1.33;;;24.20;47.00;;;;;;20824;6751;117136;-87
2022/10/23 13:14:38;;;;;;;2.10;1.73;;;24.30;47.70;;;;;;20576;6761;307248;-91
2022/10/23 13:17:24;;;;;;;1.10;1.10;;;24.30;46.70;;;;;;20661;6807;118722;-88
2022/10/23 13:19:52;;;;;;;1.93;1.17;;;24.30;46.60;;;;;;20666;6736;306065;-87
2022/10/23 13:22:27;;;;;;;2.77;0.93;;;24.30;46.10;;;;;;20879;6737;117283;-87
2022/10/23 13:25:03;;;;;;;1.90;1.40;;;24.20;46.70;;;;;;20667;6737;307577;-87
2022/10/23 13:27:39;;;;;;;3.37;1.20;;;24.30;45.70;;;;;;20724;6737;117349;-87
2022/10/23 13:30:32;;;;;;;1.00;1.00;;;23.90;47.70;;;;;;20892;6737;117339;-86
2022/10/23 13:33:20;;;;;;;2.00;1.27;;;23.90;47.70;;;;;;20897;6737;117181;-86
2022/10/23 13:36:06;;;;;;;1.90;1.10;;;23.70;48.30;;;;;;20664;6737;279920;-88
2022/10/23 13:38:44;;;;;;;2.30;1.07;;;23.90;48.00;;;;;;20843;6751;117826;-89
2022/10/23 13:41:20;;;;;;;1.90;1.30;;;24.00;48.70;;;;;;20825;6751;119725;-90